Asteria — WDE5489 — position and weather

sailwx.info

Track history (hours):
 
Tides and Currents Weather Stations Pressure Air Temp Water Temp Dewpoint Dewpoint Depression Visibility Wind Speed Wind Dir Waves Ship Positions

Asteria

Owner: Boston HarborCruises, Boston, MA. More information available from US FCC via Universal Licensing System and Coast Guard Vessel Documentation Center.

Last reported at 2017-Aug-16 21:31 UTC. Time now 2017-Aug-16 21:48 UTC.
Position N 42°20' W 070°60'.

Length 33 m; draft 2 m.

Type: High speed craft. MMSI: 367367470.

Date/timePositionNaut miles runAvg speedWind from/ knotsBaromVisibWave heightAir tempDewpointWater temp
2017-Aug-16 21:31N 42°20' W 070°60'611.6
2017-Aug-16 21:00N 42°15' W 070°55'816.8
2017-Aug-16 20:30N 42°21' W 071°03'0 0.5
2017-Aug-16 20:01N 42°21' W 071°03'0 0.7
2017-Aug-16 19:31N 42°22' W 071°03'0 0.6
2017-Aug-16 19:00N 42°22' W 071°03'1223.9
2017-Aug-16 18:30N 42°18' W 070°47'1632.1
2017-Aug-16 18:00N 42°14' W 070°26'0 0.3
2017-Aug-16 16:03N 42°14' W 070°27'131.8
2017-Aug-16 16:00N 42°15' W 070°28'1732.1
2017-Aug-16 15:29N 42°19' W 070°50'1019.7
2017-Aug-16 14:59N 42°22' W 071°03'0 0.0
2017-Aug-16 14:30N 42°22' W 071°03'1 1.3
2017-Aug-16 14:01N 42°22' W 071°02'0 1.0
2017-Aug-16 13:31N 42°21' W 071°03'611.8
2017-Aug-16 13:01N 42°17' W 070°57'2 4.5
2017-Aug-16 12:30N 42°15' W 070°55'816.6
2017-Aug-16 12:00N 42°21' W 071°03'510.4
2017-Aug-16 11:31N 42°18' W 070°58'2 0.2
2017-Aug-15 23:50N 42°16' W 070°56'722.9
2017-Aug-15 23:30N 42°21' W 071°03'2 3.3
2017-Aug-15 23:00N 42°21' W 071°01'713.6
2017-Aug-15 22:30N 42°15' W 070°55'816.9
2017-Aug-15 22:00N 42°21' W 071°03'1 1.9
2017-Aug-15 21:31N 42°21' W 071°02'815.3
2017-Aug-15 21:00N 42°15' W 070°55'816.8
2017-Aug-15 20:30N 42°21' W 071°03'0 0.2
2017-Aug-15 20:00N 42°21' W 071°03'0 0.4
2017-Aug-15 19:30N 42°22' W 071°03'1 1.3
2017-Aug-15 19:01N 42°21' W 071°02'1631.8
2017-Aug-15 18:31N 42°17' W 070°41'1932.8
2017-Aug-15 17:56N 42°13' W 070°17'613.1
2017-Aug-15 17:28N 42°11' W 070°09'0 0.9
2017-Aug-15 16:58N 42°11' W 070°10'510.0
2017-Aug-15 16:26N 42°11' W 070°17'1431.7
2017-Aug-15 16:00N 42°14' W 070°35'1325.1
2017-Aug-15 15:30N 42°19' W 070°51'1019.1
2017-Aug-15 15:00N 42°22' W 071°03'0 0.0
2017-Aug-15 14:28N 42°22' W 071°03'0 0.7
2017-Aug-15 14:01N 42°22' W 071°03'0 0.7
2017-Aug-15 13:30N 42°22' W 071°02'4 8.3
2017-Aug-15 13:00N 42°18' W 070°59'4 8.3
2017-Aug-15 12:30N 42°15' W 070°55'816.8
2017-Aug-15 12:00N 42°21' W 071°03'5 9.9
2017-Aug-15 11:31N 42°18' W 070°58'3 4.1
2017-Aug-15 10:45N 42°15' W 070°58'0 1.3
2017-Aug-15 10:29N 42°15' W 070°58'3 0.2
2017-Aug-15 00:04N 42°16' W 070°55'0 5.5
2017-Aug-15 00:01N 42°16' W 070°55'815.6
2017-Aug-14 23:31N 42°21' W 071°03'3 6.7
2017-Aug-14 23:00N 42°19' W 070°60'5 9.8
2017-Aug-14 22:30N 42°15' W 070°55'816.5
2017-Aug-14 22:00N 42°21' W 071°03'4 7.0
2017-Aug-14 21:30N 42°19' W 070°59'5 9.4
2017-Aug-14 21:00N 42°16' W 070°55'816.4
2017-Aug-14 20:31N 42°21' W 071°03'0 0.5
2017-Aug-14 20:01N 42°22' W 071°03'0 0.0
2017-Aug-14 19:31N 42°22' W 071°03'2 3.5
2017-Aug-14 19:01N 42°21' W 071°01'1530.7
2017-Aug-14 18:30N 42°16' W 070°41'1632.1
2017-Aug-14 18:01N 42°09' W 070°21'917.7
2017-Aug-14 17:30N 42°06' W 070°10'1 1.0
2017-Aug-14 16:59N 42°07' W 070°09'817.3
2017-Aug-14 16:30N 42°09' W 070°20'1428.0
2017-Aug-14 16:00N 42°14' W 070°38'1326.8
2017-Aug-14 15:31N 42°19' W 070°55'713.4
2017-Aug-14 15:00N 42°22' W 071°03'0 0.0
2017-Aug-14 14:30N 42°22' W 071°03'0 0.8
2017-Aug-14 14:00N 42°22' W 071°03'0 0.5
2017-Aug-14 13:31N 42°22' W 071°02'611.0
2017-Aug-14 13:01N 42°17' W 070°58'2 4.7
2017-Aug-14 12:30N 42°16' W 070°55'816.0
2017-Aug-14 12:00N 42°21' W 071°03'611.2
2017-Aug-14 11:31N 42°17' W 070°58'3 5.6
2017-Aug-14 11:00N 42°15' W 070°55'8 0.7
2017-Aug-13 22:12N 42°22' W 071°03'0 1.1
2017-Aug-13 22:00N 42°22' W 071°03'816.1
2017-Aug-13 21:31N 42°19' W 070°53'1631.1
2017-Aug-13 21:00N 42°14' W 070°33'0 0.0
2017-Aug-13 19:25N 42°14' W 070°33'1432.0
2017-Aug-13 18:58N 42°19' W 070°51'920.4
2017-Aug-13 18:30N 42°22' W 071°03'0 0.0
2017-Aug-13 18:00N 42°22' W 071°03'1020.5
2017-Aug-13 17:31N 42°18' W 070°50'1631.3
2017-Aug-13 17:01N 42°13' W 070°30'7 4.0
2017-Aug-13 15:13N 42°12' W 070°20'630.2
2017-Aug-13 15:00N 42°14' W 070°29'1631.1
2017-Aug-13 14:30N 42°18' W 070°49'1121.6
2017-Aug-13 14:00N 42°22' W 071°03'0 0.0
2017-Aug-13 13:30N 42°22' W 071°03'1 1.3
2017-Aug-13 13:00N 42°22' W 071°02'0 0.0
2017-Aug-13 12:30N 42°22' W 071°02'816.6
2017-Aug-13 12:00N 42°15' W 070°55'0 0.0
2017-Aug-13 01:14N 42°15' W 070°55'1 3.4
2017-Aug-13 01:00N 42°16' W 070°56'8 9.4
2017-Aug-13 00:10N 42°22' W 071°03'0 0.0
2017-Aug-13 00:00N 42°22' W 071°03'713.3
2017-Aug-12 23:31N 42°19' W 070°55'1631.9
2017-Aug-12 23:00N 42°14' W 070°34'10 8.2
2017-Aug-12 21:45N 42°11' W 070°21'4 3.3
2017-Aug-12 20:37N 42°12' W 070°25'432.0
2017-Aug-12 20:30N 42°13' W 070°31'1631.7
2017-Aug-12 20:00N 42°19' W 070°50'1019.4
2017-Aug-12 19:30N 42°22' W 071°03'0 0.0
2017-Aug-12 19:00N 42°22' W 071°03'510.5
2017-Aug-12 18:31N 42°20' W 070°56'1732.2
2017-Aug-12 17:59N 42°13' W 070°36'2 1.2
2017-Aug-12 15:58N 42°13' W 070°32'1531.4
2017-Aug-12 15:31N 42°19' W 070°50'1019.3
2017-Aug-12 15:00N 42°22' W 071°03'0 0.0
2017-Aug-12 14:31N 42°22' W 071°03'0 0.9
2017-Aug-12 14:01N 42°22' W 071°02'0 0.1
2017-Aug-12 13:30N 42°22' W 071°02'1 2.4
2017-Aug-12 13:00N 42°23' W 071°03'9 0.7
2017-Aug-11 23:55N 42°16' W 070°55'819.5
2017-Aug-11 23:31N 42°21' W 071°03'2 3.1
2017-Aug-11 23:00N 42°21' W 071°01'713.8
2017-Aug-11 22:30N 42°15' W 070°55'816.5
2017-Aug-11 22:01N 42°21' W 071°03'3 6.9
2017-Aug-11 21:30N 42°19' W 070°59'5 9.2
2017-Aug-11 21:00N 42°16' W 070°55'816.2
2017-Aug-11 20:30N 42°21' W 071°03'0 0.5
2017-Aug-11 20:00N 42°22' W 071°03'0 0.2
2017-Aug-11 19:30N 42°22' W 071°03'611.7
2017-Aug-11 19:01N 42°19' W 070°56'1831.1
2017-Aug-11 18:26N 42°12' W 070°34'1812.4
2017-Aug-11 16:57N 42°08' W 070°09'716.1
2017-Aug-11 16:31N 42°10' W 070°18'1223.3
2017-Aug-11 16:01N 42°14' W 070°33'1530.8
2017-Aug-11 15:30N 42°19' W 070°53'815.9
2017-Aug-11 15:00N 42°22' W 071°03'1 0.6
2017-Aug-11 14:00N 42°22' W 071°02'0 0.6
2017-Aug-11 13:30N 42°21' W 071°02'612.3
2017-Aug-11 13:01N 42°17' W 070°57'1 2.9
2017-Aug-11 12:31N 42°16' W 070°56'815.4
2017-Aug-11 12:01N 42°21' W 071°03'612.1
2017-Aug-11 11:31N 42°17' W 070°57'2 4.7
2017-Aug-11 11:00N 42°15' W 070°55'1 1.9
2017-Aug-11 10:30N 42°16' W 070°56'0 0.0
2017-Aug-10 23:52N 42°16' W 070°56'721.1
2017-Aug-10 23:30N 42°21' W 071°03'2 4.8
2017-Aug-10 23:01N 42°20' W 071°00'611.7
2017-Aug-10 22:31N 42°16' W 070°55'816.2
2017-Aug-10 22:00N 42°21' W 071°03'2 4.3
2017-Aug-10 21:31N 42°20' W 071°00'612.3
2017-Aug-10 21:00N 42°16' W 070°55'816.4
2017-Aug-10 20:30N 42°21' W 071°03'0 0.5
2017-Aug-10 20:00N 42°21' W 071°03'0 0.5
2017-Aug-10 19:30N 42°22' W 071°03'0 0.2
2017-Aug-10 19:00N 42°22' W 071°03'3 7.0
2017-Aug-10 18:31N 42°20' W 070°59'1632.1
2017-Aug-10 18:00N 42°15' W 070°38'1110.4
2017-Aug-10 16:55N 42°11' W 070°24'1 1.8
2017-Aug-10 16:28N 42°11' W 070°23'715.9
2017-Aug-10 16:00N 42°14' W 070°32'1531.2
2017-Aug-10 15:31N 42°19' W 070°52'917.3
2017-Aug-10 15:00N 42°22' W 071°03'0 0.0
2017-Aug-10 14:30N 42°22' W 071°03'0 0.5
2017-Aug-10 13:30N 42°21' W 071°02'611.9
2017-Aug-10 13:01N 42°17' W 070°57'2 4.1
2017-Aug-10 12:28N 42°15' W 070°55'818.2
2017-Aug-10 12:00N 42°21' W 071°03'5 9.4
2017-Aug-10 11:31N 42°18' W 070°58'4 6.8
2017-Aug-10 10:58N 42°15' W 070°55'3 6.4
2017-Aug-10 10:31N 42°18' W 070°55'3 5.0
2017-Aug-10 09:55N 42°15' W 070°55'1 0.1
2017-Aug-09 23:57N 42°16' W 070°55'817.5
2017-Aug-09 23:30N 42°21' W 071°03'4 8.5
2017-Aug-09 23:01N 42°20' W 070°57'5 9.8
2017-Aug-09 22:30N 42°16' W 070°55'816.4
2017-Aug-09 22:00N 42°21' W 071°03'3 6.6
2017-Aug-09 21:31N 42°19' W 070°60'510.0
2017-Aug-09 21:00N 42°15' W 070°55'816.6
2017-Aug-09 20:30N 42°21' W 071°03'0 0.6
2017-Aug-09 20:00N 42°21' W 071°03'0 0.8
2017-Aug-09 19:30N 42°22' W 071°03'1 1.1
2017-Aug-09 19:01N 42°21' W 071°02'1428.9
2017-Aug-09 18:31N 42°17' W 070°44'2414.4
2017-Aug-09 16:50N 42°06' W 070°15'411.5
2017-Aug-09 16:30N 42°10' W 070°16'1224.9
2017-Aug-09 16:01N 42°15' W 070°31'1631.3
2017-Aug-09 15:31N 42°19' W 070°52'917.5
2017-Aug-09 15:00N 42°22' W 071°03'0 0.0
2017-Aug-09 14:30N 42°22' W 071°03'0 0.9
2017-Aug-09 14:00N 42°22' W 071°02'0 0.8
2017-Aug-09 13:31N 42°21' W 071°03'511.0
2017-Aug-09 13:01N 42°17' W 070°58'2 4.6
2017-Aug-09 12:30N 42°16' W 070°55'815.8
2017-Aug-09 12:00N 42°21' W 071°03'611.2
2017-Aug-09 11:31N 42°17' W 070°58'3 4.7
2017-Aug-09 10:54N 42°15' W 070°55'1 2.4
2017-Aug-09 10:31N 42°16' W 070°56'0 0.0
2017-Aug-08 23:51N 42°16' W 070°56'822.5
2017-Aug-08 23:30N 42°21' W 071°03'2 3.9
2017-Aug-08 23:01N 42°20' W 071°01'712.8
2017-Aug-08 22:30N 42°15' W 070°55'817.1
2017-Aug-08 22:00N 42°21' W 071°03'1 2.4
2017-Aug-08 21:30N 42°21' W 071°01'714.6
2017-Aug-08 21:00N 42°15' W 070°55'817.0
2017-Aug-08 20:30N 42°21' W 071°03'1 1.4
2017-Aug-08 20:00N 42°22' W 071°02'0 0.2
2017-Aug-08 19:30N 42°22' W 071°02'1 1.1
2017-Aug-08 19:00N 42°22' W 071°03'0 0.5
2017-Aug-08 18:30N 42°22' W 071°03'1427.6
2017-Aug-08 18:00N 42°18' W 070°45'12 7.4
2017-Aug-08 16:22N 42°14' W 070°29'1 2.8
2017-Aug-08 15:57N 42°14' W 070°30'1432.3
2017-Aug-08 15:30N 42°18' W 070°49'1121.8
2017-Aug-08 15:00N 42°22' W 071°03'0 0.0
2017-Aug-08 14:31N 42°22' W 071°03'0 0.5
2017-Aug-08 14:00N 42°22' W 071°03'0 0.8
2017-Aug-08 13:30N 42°22' W 071°02'510.0
2017-Aug-08 13:01N 42°18' W 070°58'3 6.4
2017-Aug-08 12:30N 42°15' W 070°55'816.8
2017-Aug-08 12:01N 42°21' W 071°03'4 9.0
2017-Aug-08 11:30N 42°18' W 070°58'4 7.6
2017-Aug-08 11:00N 42°15' W 070°55'1 1.1
2017-Aug-08 10:14N 42°16' W 070°56'1 1.6
2017-Aug-08 09:42N 42°15' W 070°55'0 0.0
2017-Aug-08 00:11N 42°15' W 070°55'0 0.9
2017-Aug-08 00:00N 42°15' W 070°55'817.1
2017-Aug-07 23:30N 42°21' W 071°03'2 3.6
2017-Aug-07 23:01N 42°21' W 071°01'713.2
2017-Aug-07 22:30N 42°15' W 070°55'816.5
2017-Aug-07 22:00N 42°21' W 071°03'1 1.5
2017-Aug-07 21:31N 42°21' W 071°02'815.2
2017-Aug-07 21:00N 42°15' W 070°55'816.7
2017-Aug-07 20:31N 42°21' W 071°03'0 0.5
2017-Aug-07 20:00N 42°22' W 071°03'0 0.2
2017-Aug-07 19:30N 42°22' W 071°03'0 0.9
2017-Aug-07 19:00N 42°22' W 071°02'1427.1
2017-Aug-07 18:31N 42°18' W 070°45'1631.6
2017-Aug-07 18:00N 42°13' W 070°24'1 0.6
2017-Aug-07 16:12N 42°12' W 070°23'631.9
2017-Aug-07 16:00N 42°14' W 070°31'1631.8
2017-Aug-07 15:31N 42°19' W 070°51'918.2
2017-Aug-07 15:00N 42°22' W 071°03'0 0.0
2017-Aug-07 14:31N 42°22' W 071°03'0 0.8
2017-Aug-07 14:01N 42°22' W 071°02'0 0.5
2017-Aug-07 13:30N 42°22' W 071°02'510.9
2017-Aug-07 13:01N 42°17' W 070°58'3 5.0
2017-Aug-07 12:30N 42°16' W 070°55'816.3
2017-Aug-07 12:00N 42°21' W 071°03'612.9
2017-Aug-07 11:31N 42°17' W 070°57'2 3.9
2017-Aug-07 11:00N 42°15' W 070°55'1 2.0
2017-Aug-07 10:30N 42°16' W 070°56'1 0.0
2017-Aug-06 23:11N 42°16' W 070°56'530.9
2017-Aug-06 23:01N 42°20' W 071°00'2 4.6
2017-Aug-06 22:30N 42°22' W 071°03'2 4.0
2017-Aug-06 22:01N 42°21' W 071°00'  
Track history (hours):
 
Tides and Currents Weather Stations Pressure Air Temp Water Temp Dewpoint Dewpoint Depression Visibility Wind Speed Wind Dir Waves Ship Positions

Asteria

Owner: Boston HarborCruises, Boston, MA. More information available from US FCC via Universal Licensing System and Coast Guard Vessel Documentation Center.

Last reported at 2017-Aug-16 21:31 UTC. Time now 2017-Aug-16 21:48 UTC.
Position N 42°20' W 070°60'.

Length 33 m; draft 2 m.

Type: High speed craft. MMSI: 367367470.

Date/timePositionNaut miles runAvg speedWind from/ knotsBaromVisibWave heightAir tempDewpointWater temp
2017-Aug-16 21:31N 42°20' W 070°60'611.6
2017-Aug-16 21:00N 42°15' W 070°55'816.8
2017-Aug-16 20:30N 42°21' W 071°03'0 0.5
2017-Aug-16 20:01N 42°21' W 071°03'0 0.7
2017-Aug-16 19:31N 42°22' W 071°03'0 0.6
2017-Aug-16 19:00N 42°22' W 071°03'1223.9
2017-Aug-16 18:30N 42°18' W 070°47'1632.1
2017-Aug-16 18:00N 42°14' W 070°26'0 0.3
2017-Aug-16 16:03N 42°14' W 070°27'131.8
2017-Aug-16 16:00N 42°15' W 070°28'1732.1
2017-Aug-16 15:29N 42°19' W 070°50'1019.7
2017-Aug-16 14:59N 42°22' W 071°03'0 0.0
2017-Aug-16 14:30N 42°22' W 071°03'1 1.3
2017-Aug-16 14:01N 42°22' W 071°02'0 1.0
2017-Aug-16 13:31N 42°21' W 071°03'611.8
2017-Aug-16 13:01N 42°17' W 070°57'2 4.5
2017-Aug-16 12:30N 42°15' W 070°55'816.6
2017-Aug-16 12:00N 42°21' W 071°03'510.4
2017-Aug-16 11:31N 42°18' W 070°58'2 0.2
2017-Aug-15 23:50N 42°16' W 070°56'722.9
2017-Aug-15 23:30N 42°21' W 071°03'2 3.3
2017-Aug-15 23:00N 42°21' W 071°01'713.6
2017-Aug-15 22:30N 42°15' W 070°55'816.9
2017-Aug-15 22:00N 42°21' W 071°03'1 1.9
2017-Aug-15 21:31N 42°21' W 071°02'815.3
2017-Aug-15 21:00N 42°15' W 070°55'816.8
2017-Aug-15 20:30N 42°21' W 071°03'0 0.2
2017-Aug-15 20:00N 42°21' W 071°03'0 0.4
2017-Aug-15 19:30N 42°22' W 071°03'1 1.3
2017-Aug-15 19:01N 42°21' W 071°02'1631.8
2017-Aug-15 18:31N 42°17' W 070°41'1932.8
2017-Aug-15 17:56N 42°13' W 070°17'613.1
2017-Aug-15 17:28N 42°11' W 070°09'0 0.9
2017-Aug-15 16:58N 42°11' W 070°10'510.0
2017-Aug-15 16:26N 42°11' W 070°17'1431.7
2017-Aug-15 16:00N 42°14' W 070°35'1325.1
2017-Aug-15 15:30N 42°19' W 070°51'1019.1
2017-Aug-15 15:00N 42°22' W 071°03'0 0.0
2017-Aug-15 14:28N 42°22' W 071°03'0 0.7
2017-Aug-15 14:01N 42°22' W 071°03'0 0.7
2017-Aug-15 13:30N 42°22' W 071°02'4 8.3
2017-Aug-15 13:00N 42°18' W 070°59'4 8.3
2017-Aug-15 12:30N 42°15' W 070°55'816.8
2017-Aug-15 12:00N 42°21' W 071°03'5 9.9
2017-Aug-15 11:31N 42°18' W 070°58'3 4.1
2017-Aug-15 10:45N 42°15' W 070°58'0 1.3
2017-Aug-15 10:29N 42°15' W 070°58'3 0.2
2017-Aug-15 00:04N 42°16' W 070°55'0 5.5
2017-Aug-15 00:01N 42°16' W 070°55'815.6
2017-Aug-14 23:31N 42°21' W 071°03'3 6.7
2017-Aug-14 23:00N 42°19' W 070°60'5 9.8
2017-Aug-14 22:30N 42°15' W 070°55'816.5
2017-Aug-14 22:00N 42°21' W 071°03'4 7.0
2017-Aug-14 21:30N 42°19' W 070°59'5 9.4
2017-Aug-14 21:00N 42°16' W 070°55'816.4
2017-Aug-14 20:31N 42°21' W 071°03'0 0.5
2017-Aug-14 20:01N 42°22' W 071°03'0 0.0
2017-Aug-14 19:31N 42°22' W 071°03'2 3.5
2017-Aug-14 19:01N 42°21' W 071°01'1530.7
2017-Aug-14 18:30N 42°16' W 070°41'1632.1
2017-Aug-14 18:01N 42°09' W 070°21'917.7
2017-Aug-14 17:30N 42°06' W 070°10'1 1.0
2017-Aug-14 16:59N 42°07' W 070°09'817.3
2017-Aug-14 16:30N 42°09' W 070°20'1428.0
2017-Aug-14 16:00N 42°14' W 070°38'1326.8
2017-Aug-14 15:31N 42°19' W 070°55'713.4
2017-Aug-14 15:00N 42°22' W 071°03'0 0.0
2017-Aug-14 14:30N 42°22' W 071°03'0 0.8
2017-Aug-14 14:00N 42°22' W 071°03'0 0.5
2017-Aug-14 13:31N 42°22' W 071°02'611.0
2017-Aug-14 13:01N 42°17' W 070°58'2 4.7
2017-Aug-14 12:30N 42°16' W 070°55'816.0
2017-Aug-14 12:00N 42°21' W 071°03'611.2
2017-Aug-14 11:31N 42°17' W 070°58'3 5.6
2017-Aug-14 11:00N 42°15' W 070°55'8 0.7
2017-Aug-13 22:12N 42°22' W 071°03'0 1.1
2017-Aug-13 22:00N 42°22' W 071°03'816.1
2017-Aug-13 21:31N 42°19' W 070°53'1631.1
2017-Aug-13 21:00N 42°14' W 070°33'0 0.0
2017-Aug-13 19:25N 42°14' W 070°33'1432.0
2017-Aug-13 18:58N 42°19' W 070°51'920.4
2017-Aug-13 18:30N 42°22' W 071°03'0 0.0
2017-Aug-13 18:00N 42°22' W 071°03'1020.5
2017-Aug-13 17:31N 42°18' W 070°50'1631.3
2017-Aug-13 17:01N 42°13' W 070°30'7 4.0
2017-Aug-13 15:13N 42°12' W 070°20'630.2
2017-Aug-13 15:00N 42°14' W 070°29'1631.1
2017-Aug-13 14:30N 42°18' W 070°49'1121.6
2017-Aug-13 14:00N 42°22' W 071°03'0 0.0
2017-Aug-13 13:30N 42°22' W 071°03'1 1.3
2017-Aug-13 13:00N 42°22' W 071°02'0 0.0
2017-Aug-13 12:30N 42°22' W 071°02'816.6
2017-Aug-13 12:00N 42°15' W 070°55'0 0.0
2017-Aug-13 01:14N 42°15' W 070°55'1 3.4
2017-Aug-13 01:00N 42°16' W 070°56'8 9.4
2017-Aug-13 00:10N 42°22' W 071°03'0 0.0
2017-Aug-13 00:00N 42°22' W 071°03'713.3
2017-Aug-12 23:31N 42°19' W 070°55'1631.9
2017-Aug-12 23:00N 42°14' W 070°34'10 8.2
2017-Aug-12 21:45N 42°11' W 070°21'4 3.3
2017-Aug-12 20:37N 42°12' W 070°25'432.0
2017-Aug-12 20:30N 42°13' W 070°31'1631.7
2017-Aug-12 20:00N 42°19' W 070°50'1019.4
2017-Aug-12 19:30N 42°22' W 071°03'0 0.0
2017-Aug-12 19:00N 42°22' W 071°03'510.5
2017-Aug-12 18:31N 42°20' W 070°56'1732.2
2017-Aug-12 17:59N 42°13' W 070°36'2 1.2
2017-Aug-12 15:58N 42°13' W 070°32'1531.4
2017-Aug-12 15:31N 42°19' W 070°50'1019.3
2017-Aug-12 15:00N 42°22' W 071°03'0 0.0
2017-Aug-12 14:31N 42°22' W 071°03'0 0.9
2017-Aug-12 14:01N 42°22' W 071°02'0 0.1
2017-Aug-12 13:30N 42°22' W 071°02'1 2.4
2017-Aug-12 13:00N 42°23' W 071°03'9 0.7
2017-Aug-11 23:55N 42°16' W 070°55'819.5
2017-Aug-11 23:31N 42°21' W 071°03'2 3.1
2017-Aug-11 23:00N 42°21' W 071°01'713.8
2017-Aug-11 22:30N 42°15' W 070°55'816.5
2017-Aug-11 22:01N 42°21' W 071°03'3 6.9
2017-Aug-11 21:30N 42°19' W 070°59'5 9.2
2017-Aug-11 21:00N 42°16' W 070°55'816.2
2017-Aug-11 20:30N 42°21' W 071°03'0 0.5
2017-Aug-11 20:00N 42°22' W 071°03'0 0.2
2017-Aug-11 19:30N 42°22' W 071°03'611.7
2017-Aug-11 19:01N 42°19' W 070°56'1831.1
2017-Aug-11 18:26N 42°12' W 070°34'1812.4
2017-Aug-11 16:57N 42°08' W 070°09'716.1
2017-Aug-11 16:31N 42°10' W 070°18'1223.3
2017-Aug-11 16:01N 42°14' W 070°33'1530.8
2017-Aug-11 15:30N 42°19' W 070°53'815.9
2017-Aug-11 15:00N 42°22' W 071°03'1 0.6
2017-Aug-11 14:00N 42°22' W 071°02'0 0.6
2017-Aug-11 13:30N 42°21' W 071°02'612.3
2017-Aug-11 13:01N 42°17' W 070°57'1 2.9
2017-Aug-11 12:31N 42°16' W 070°56'815.4
2017-Aug-11 12:01N 42°21' W 071°03'612.1
2017-Aug-11 11:31N 42°17' W 070°57'2 4.7
2017-Aug-11 11:00N 42°15' W 070°55'1 1.9
2017-Aug-11 10:30N 42°16' W 070°56'0 0.0
2017-Aug-10 23:52N 42°16' W 070°56'721.1
2017-Aug-10 23:30N 42°21' W 071°03'2 4.8
2017-Aug-10 23:01N 42°20' W 071°00'611.7
2017-Aug-10 22:31N 42°16' W 070°55'816.2
2017-Aug-10 22:00N 42°21' W 071°03'2 4.3
2017-Aug-10 21:31N 42°20' W 071°00'612.3
2017-Aug-10 21:00N 42°16' W 070°55'816.4
2017-Aug-10 20:30N 42°21' W 071°03'0 0.5
2017-Aug-10 20:00N 42°21' W 071°03'0 0.5
2017-Aug-10 19:30N 42°22' W 071°03'0 0.2
2017-Aug-10 19:00N 42°22' W 071°03'3 7.0
2017-Aug-10 18:31N 42°20' W 070°59'1632.1
2017-Aug-10 18:00N 42°15' W 070°38'1110.4
2017-Aug-10 16:55N 42°11' W 070°24'1 1.8
2017-Aug-10 16:28N 42°11' W 070°23'715.9
2017-Aug-10 16:00N 42°14' W 070°32'1531.2
2017-Aug-10 15:31N 42°19' W 070°52'917.3
2017-Aug-10 15:00N 42°22' W 071°03'0 0.0
2017-Aug-10 14:30N 42°22' W 071°03'0 0.5
2017-Aug-10 13:30N 42°21' W 071°02'611.9
2017-Aug-10 13:01N 42°17' W 070°57'2 4.1
2017-Aug-10 12:28N 42°15' W 070°55'818.2
2017-Aug-10 12:00N 42°21' W 071°03'5 9.4
2017-Aug-10 11:31N 42°18' W 070°58'4 6.8
2017-Aug-10 10:58N 42°15' W 070°55'3 6.4
2017-Aug-10 10:31N 42°18' W 070°55'3 5.0
2017-Aug-10 09:55N 42°15' W 070°55'1 0.1
2017-Aug-09 23:57N 42°16' W 070°55'817.5
2017-Aug-09 23:30N 42°21' W 071°03'4 8.5
2017-Aug-09 23:01N 42°20' W 070°57'5 9.8
2017-Aug-09 22:30N 42°16' W 070°55'816.4
2017-Aug-09 22:00N 42°21' W 071°03'3 6.6
2017-Aug-09 21:31N 42°19' W 070°60'510.0
2017-Aug-09 21:00N 42°15' W 070°55'816.6
2017-Aug-09 20:30N 42°21' W 071°03'0 0.6
2017-Aug-09 20:00N 42°21' W 071°03'0 0.8
2017-Aug-09 19:30N 42°22' W 071°03'1 1.1
2017-Aug-09 19:01N 42°21' W 071°02'1428.9
2017-Aug-09 18:31N 42°17' W 070°44'2414.4
2017-Aug-09 16:50N 42°06' W 070°15'411.5
2017-Aug-09 16:30N 42°10' W 070°16'1224.9
2017-Aug-09 16:01N 42°15' W 070°31'1631.3
2017-Aug-09 15:31N 42°19' W 070°52'917.5
2017-Aug-09 15:00N 42°22' W 071°03'0 0.0
2017-Aug-09 14:30N 42°22' W 071°03'0 0.9
2017-Aug-09 14:00N 42°22' W 071°02'0 0.8
2017-Aug-09 13:31N 42°21' W 071°03'511.0
2017-Aug-09 13:01N 42°17' W 070°58'2 4.6
2017-Aug-09 12:30N 42°16' W 070°55'815.8
2017-Aug-09 12:00N 42°21' W 071°03'611.2
2017-Aug-09 11:31N 42°17' W 070°58'3 4.7
2017-Aug-09 10:54N 42°15' W 070°55'1 2.4
2017-Aug-09 10:31N 42°16' W 070°56'0 0.0
2017-Aug-08 23:51N 42°16' W 070°56'822.5
2017-Aug-08 23:30N 42°21' W 071°03'2 3.9
2017-Aug-08 23:01N 42°20' W 071°01'712.8
2017-Aug-08 22:30N 42°15' W 070°55'817.1
2017-Aug-08 22:00N 42°21' W 071°03'1 2.4
2017-Aug-08 21:30N 42°21' W 071°01'714.6
2017-Aug-08 21:00N 42°15' W 070°55'817.0
2017-Aug-08 20:30N 42°21' W 071°03'1 1.4
2017-Aug-08 20:00N 42°22' W 071°02'0 0.2
2017-Aug-08 19:30N 42°22' W 071°02'1 1.1
2017-Aug-08 19:00N 42°22' W 071°03'0 0.5
2017-Aug-08 18:30N 42°22' W 071°03'1427.6
2017-Aug-08 18:00N 42°18' W 070°45'12 7.4
2017-Aug-08 16:22N 42°14' W 070°29'1 2.8
2017-Aug-08 15:57N 42°14' W 070°30'1432.3
2017-Aug-08 15:30N 42°18' W 070°49'1121.8
2017-Aug-08 15:00N 42°22' W 071°03'0 0.0
2017-Aug-08 14:31N 42°22' W 071°03'0 0.5
2017-Aug-08 14:00N 42°22' W 071°03'0 0.8
2017-Aug-08 13:30N 42°22' W 071°02'510.0
2017-Aug-08 13:01N 42°18' W 070°58'3 6.4
2017-Aug-08 12:30N 42°15' W 070°55'816.8
2017-Aug-08 12:01N 42°21' W 071°03'4 9.0
2017-Aug-08 11:30N 42°18' W 070°58'4 7.6
2017-Aug-08 11:00N 42°15' W 070°55'1 1.1
2017-Aug-08 10:14N 42°16' W 070°56'1 1.6
2017-Aug-08 09:42N 42°15' W 070°55'0 0.0
2017-Aug-08 00:11N 42°15' W 070°55'0 0.9
2017-Aug-08 00:00N 42°15' W 070°55'817.1
2017-Aug-07 23:30N 42°21' W 071°03'2 3.6
2017-Aug-07 23:01N 42°21' W 071°01'713.2
2017-Aug-07 22:30N 42°15' W 070°55'816.5
2017-Aug-07 22:00N 42°21' W 071°03'1 1.5
2017-Aug-07 21:31N 42°21' W 071°02'815.2
2017-Aug-07 21:00N 42°15' W 070°55'816.7
2017-Aug-07 20:31N 42°21' W 071°03'0 0.5
2017-Aug-07 20:00N 42°22' W 071°03'0 0.2
2017-Aug-07 19:30N 42°22' W 071°03'0 0.9
2017-Aug-07 19:00N 42°22' W 071°02'1427.1
2017-Aug-07 18:31N 42°18' W 070°45'1631.6
2017-Aug-07 18:00N 42°13' W 070°24'1 0.6
2017-Aug-07 16:12N 42°12' W 070°23'631.9
2017-Aug-07 16:00N 42°14' W 070°31'1631.8
2017-Aug-07 15:31N 42°19' W 070°51'918.2
2017-Aug-07 15:00N 42°22' W 071°03'0 0.0
2017-Aug-07 14:31N 42°22' W 071°03'0 0.8
2017-Aug-07 14:01N 42°22' W 071°02'0 0.5
2017-Aug-07 13:30N 42°22' W 071°02'510.9
2017-Aug-07 13:01N 42°17' W 070°58'3 5.0
2017-Aug-07 12:30N 42°16' W 070°55'816.3
2017-Aug-07 12:00N 42°21' W 071°03'612.9
2017-Aug-07 11:31N 42°17' W 070°57'2 3.9
2017-Aug-07 11:00N 42°15' W 070°55'1 2.0
2017-Aug-07 10:30N 42°16' W 070°56'1 0.0
2017-Aug-06 23:11N 42°16' W 070°56'530.9
2017-Aug-06 23:01N 42°20' W 071°00'2 4.6
2017-Aug-06 22:30N 42°22' W 071°03'2 4.0
2017-Aug-06 22:01N 42°21' W 071°00'  

Dump ship's entire track history